Time;durP1;ratioP1;P1;durP2;ratioP2;P2;SDS_P1;SDS_P2;PMS_P1;PMS_P2;Temp;Humidity;BMP_temperature;BMP_pressure;BME280_temperature;BME280_humidity;BME280_pressure;Samples;Min_cycle;Max_cycle;Signal;HPM_P1;HPM_P2
2021/10/07 00:02:24;;;;;;;8.68;4.57;;;359.10;2329.60;;;;;;4991995;28;20030;-83
2021/10/07 00:04:50;;;;;;;13.80;5.88;;;359.10;2329.60;;;;;;4991135;28;20038;-83
2021/10/07 00:07:15;;;;;;;10.80;5.78;;;359.10;2329.60;;;;;;5000499;28;20073;-83
2021/10/07 00:09:41;;;;;;;9.27;4.85;;;359.10;2329.60;;;;;;4977148;28;20030;-81
2021/10/07 00:12:07;;;;;;;12.98;5.88;;;359.00;2329.60;;;;;;4989656;28;20487;-82
2021/10/07 00:14:34;;;;;;;12.52;4.72;;;359.00;2329.60;;;;;;4989746;28;20022;-84
2021/10/07 00:17:00;;;;;;;17.40;6.13;;;359.00;2329.60;;;;;;5008700;28;20071;-82
2021/10/07 00:19:26;;;;;;;10.43;5.18;;;359.00;2329.60;;;;;;4994394;28;20475;-80
2021/10/07 00:21:51;;;;;;;13.30;5.38;;;358.90;2329.60;;;;;;5013906;28;20034;-83
2021/10/07 00:24:17;;;;;;;14.35;5.45;;;358.80;2329.60;;;;;;4994512;28;20483;-78
2021/10/07 00:26:46;;;;;;;16.60;5.47;;;358.80;2329.60;;;;;;4987200;28;20026;-79
2021/10/07 00:31:53;;;;;;;15.68;6.13;;;358.80;2329.60;;;;;;5026239;28;20060;-83
2021/10/07 00:39:22;;;;;;;16.02;6.15;;;358.60;2329.60;;;;;;5021659;28;20017;-84
2021/10/07 00:41:48;;;;;;;13.82;6.13;;;358.50;2329.60;;;;;;5013925;28;20021;-79
2021/10/07 00:44:14;;;;;;;11.85;4.95;;;358.60;2329.60;;;;;;5011960;28;20018;-79
2021/10/07 00:46:59;;;;;;;14.32;5.20;;;358.50;2329.60;;;;;;5002231;28;20033;-78
2021/10/07 00:49:25;;;;;;;20.25;5.40;;;358.50;2329.60;;;;;;5022664;28;20442;-81
2021/10/07 00:51:51;;;;;;;11.20;6.32;;;358.50;2329.60;;;;;;5010289;28;20034;-84
2021/10/07 00:54:22;;;;;;;11.77;5.47;;;358.50;2329.60;;;;;;5023068;28;20104;-83
2021/10/07 00:56:49;;;;;;;11.35;4.57;;;358.50;2329.60;;;;;;5009808;28;20029;-80
2021/10/07 00:59:15;;;;;;;10.88;6.40;;;358.50;2329.60;;;;;;5006395;28;20522;-84
2021/10/07 01:01:41;;;;;;;13.82;5.30;;;358.50;2329.60;;;;;;5013149;28;20460;-81
2021/10/07 01:04:08;;;;;;;9.77;5.15;;;358.50;2329.60;;;;;;5032779;28;20139;-85
2021/10/07 01:06:34;;;;;;;10.38;5.07;;;358.60;2329.60;;;;;;5015878;28;20368;-83
2021/10/07 01:09:02;;;;;;;18.33;5.85;;;358.50;2329.60;;;;;;5033226;28;20106;-81
2021/10/07 01:11:28;;;;;;;10.27;6.40;;;358.40;2329.60;;;;;;5015833;28;20025;-82
2021/10/07 01:13:54;;;;;;;8.85;5.13;;;333.70;2329.60;;;;;;5015296;28;20126;-83
2021/10/07 01:16:20;;;;;;;11.82;6.03;;;333.70;2329.60;;;;;;5015515;28;20483;-85
2021/10/07 01:18:46;;;;;;;11.95;5.45;;;333.70;2329.60;;;;;;5015398;28;20117;-81
2021/10/07 01:21:13;;;;;;;15.35;5.80;;;333.70;2329.60;;;;;;5015617;28;20053;-81
2021/10/07 01:23:43;;;;;;;11.13;6.05;;;333.60;2329.60;;;;;;5032792;28;20017;-84
2021/10/07 01:26:11;;;;;;;17.95;5.47;;;333.60;2329.60;;;;;;5015309;28;20064;-84
2021/10/07 01:28:42;;;;;;;12.90;5.43;;;333.50;2329.60;;;;;;4999511;28;20116;-81
2021/10/07 01:31:07;;;;;;;11.43;5.25;;;333.60;2329.60;;;;;;4995696;28;20033;-84
2021/10/07 01:33:33;;;;;;;14.05;5.15;;;333.60;2329.60;;;;;;4994989;28;20026;-84
2021/10/07 01:36:02;;;;;;;9.70;5.38;;;333.60;2329.60;;;;;;4995641;28;20033;-84
2021/10/07 01:38:28;;;;;;;21.50;5.72;;;333.70;2329.60;;;;;;4995897;28;20032;-81
2021/10/07 01:40:55;;;;;;;11.25;5.30;;;333.70;2329.60;;;;;;4995676;28;20022;-85
2021/10/07 01:43:21;;;;;;;11.90;5.10;;;333.70;2329.60;;;;;;4995337;28;20026;-81
2021/10/07 01:45:48;;;;;;;14.88;4.80;;;333.70;2329.60;;;;;;4994477;28;20113;-80
2021/10/07 01:48:15;;;;;;;13.10;4.68;;;333.70;2329.60;;;;;;5012588;28;20494;-84
2021/10/07 01:50:41;;;;;;;17.30;5.25;;;358.40;2329.60;;;;;;4994652;28;20486;-84
2021/10/07 01:53:07;;;;;;;10.27;4.97;;;333.70;2329.60;;;;;;4995225;28;20014;-84
2021/10/07 01:55:33;;;;;;;14.52;4.95;;;333.70;2329.60;;;;;;4995379;28;20403;-79
2021/10/07 01:57:59;;;;;;;9.43;4.60;;;333.70;2329.60;;;;;;4995015;28;20042;-83
2021/10/07 02:00:24;;;;;;;10.18;4.82;;;358.40;2329.60;;;;;;4994638;28;20034;-80
2021/10/07 02:02:50;;;;;;;10.18;4.82;;;358.40;2329.60;;;;;;4994578;28;20513;-84
2021/10/07 02:05:17;;;;;;;11.60;4.50;;;358.50;2329.60;;;;;;4995352;28;20026;-84
2021/10/07 02:07:43;;;;;;;8.25;4.35;;;358.50;2329.60;;;;;;4995123;28;20045;-84
2021/10/07 02:10:14;;;;;;;12.63;5.88;;;358.50;2329.60;;;;;;5012703;28;20476;-85
2021/10/07 02:12:48;;;;;;;13.75;5.05;;;358.50;2329.60;;;;;;4994947;28;20029;-83
2021/10/07 02:15:14;;;;;;;12.07;5.10;;;358.50;2329.60;;;;;;4995026;28;20030;-84
2021/10/07 02:17:40;;;;;;;8.82;4.78;;;358.60;2329.60;;;;;;4994748;28;20026;-83
2021/10/07 02:20:09;;;;;;;9.32;5.07;;;358.60;2329.60;;;;;;5012283;28;20072;-82
2021/10/07 02:22:35;;;;;;;10.45;4.15;;;358.60;2329.60;;;;;;5012450;28;20018;-84
2021/10/07 02:25:01;;;;;;;10.68;4.70;;;358.60;2329.60;;;;;;4994700;28;20032;-82
2021/10/07 02:27:26;;;;;;;11.20;4.20;;;358.60;2329.60;;;;;;5015928;28;20048;-84
2021/10/07 02:29:52;;;;;;;14.23;5.55;;;358.70;2329.60;;;;;;5031698;28;20065;-85
2021/10/07 02:32:18;;;;;;;8.85;4.35;;;358.70;2329.60;;;;;;5014209;28;20049;-83
2021/10/07 02:34:44;;;;;;;10.93;4.63;;;358.70;2329.60;;;;;;5032072;28;20055;-84
2021/10/07 02:37:10;;;;;;;12.02;4.88;;;358.80;2329.60;;;;;;5014255;28;20038;-84
2021/10/07 02:39:37;;;;;;;10.10;4.85;;;358.80;2329.60;;;;;;5014464;28;20056;-81
2021/10/07 02:42:04;;;;;;;12.00;4.30;;;358.80;2329.60;;;;;;5032023;28;20021;-85
2021/10/07 02:44:29;;;;;;;10.70;4.15;;;358.80;2329.60;;;;;;5014413;28;20024;-85
2021/10/07 02:46:55;;;;;;;10.38;4.65;;;358.90;2329.60;;;;;;5014346;28;20390;-82
2021/10/07 02:49:21;;;;;;;10.10;4.07;;;358.90;2329.60;;;;;;5031228;28;20041;-84
2021/10/07 02:51:47;;;;;;;14.10;4.40;;;358.90;2329.60;;;;;;5031774;28;20032;-84
2021/10/07 02:54:13;;;;;;;9.18;4.32;;;358.90;2329.60;;;;;;5014054;28;20108;-84
2021/10/07 02:56:39;;;;;;;9.38;4.90;;;358.90;2329.60;;;;;;5012401;28;20056;-81
2021/10/07 02:59:05;;;;;;;7.63;4.22;;;358.90;2329.60;;;;;;5007788;28;20018;-82
2021/10/07 03:01:30;;;;;;;7.07;4.22;;;358.90;2329.60;;;;;;5014350;28;20053;-82
2021/10/07 03:03:56;;;;;;;14.98;4.93;;;358.90;2329.60;;;;;;5017366;28;20430;-83
2021/10/07 03:06:22;;;;;;;15.82;5.63;;;358.90;2329.60;;;;;;5035104;28;20398;-83
2021/10/07 03:08:47;;;;;;;13.93;5.65;;;359.00;2329.60;;;;;;5017933;28;20552;-81
2021/10/07 03:11:14;;;;;;;13.63;7.68;;;359.00;2329.60;;;;;;5035447;28;20025;-83
2021/10/07 03:13:40;;;;;;;15.55;6.75;;;359.00;2329.60;;;;;;5035396;28;20456;-82
2021/10/07 03:16:06;;;;;;;22.67;9.05;;;359.00;2329.60;;;;;;5017774;28;20029;-84
2021/10/07 03:18:31;;;;;;;16.73;8.43;;;359.00;2329.60;;;;;;5017262;28;20386;-85
2021/10/07 03:20:57;;;;;;;16.55;7.97;;;358.90;2329.60;;;;;;5035309;28;20026;-84
2021/10/07 03:23:23;;;;;;;15.80;9.25;;;358.90;2329.60;;;;;;5017276;28;20026;-82
2021/10/07 03:25:49;;;;;;;18.48;9.70;;;358.80;2329.60;;;;;;5035196;28;20048;-82
2021/10/07 03:28:14;;;;;;;15.40;10.23;;;358.80;2329.60;;;;;;5017246;28;20494;-80
2021/10/07 03:30:40;;;;;;;25.55;11.32;;;358.80;2329.60;;;;;;5016597;28;20041;-81
2021/10/07 03:33:07;;;;;;;17.67;11.32;;;358.80;2329.60;;;;;;5034887;28;20017;-82
2021/10/07 03:35:34;;;;;;;19.85;10.85;;;358.70;2329.60;;;;;;5017331;28;20029;-82
2021/10/07 03:38:00;;;;;;;17.23;9.95;;;358.80;2329.60;;;;;;5017577;28;20116;-81
2021/10/07 03:40:26;;;;;;;14.60;9.50;;;358.80;2329.60;;;;;;5017182;28;20164;-81
2021/10/07 03:42:52;;;;;;;13.75;8.50;;;358.80;2329.60;;;;;;5017345;28;20103;-83
2021/10/07 03:45:17;;;;;;;11.25;7.28;;;358.90;2329.60;;;;;;5017190;28;20013;-80
2021/10/07 03:47:43;;;;;;;16.25;7.15;;;358.80;2329.60;;;;;;5017373;28;20034;-82
2021/10/07 03:50:09;;;;;;;15.80;7.53;;;358.80;2329.60;;;;;;5016654;28;20026;-83
2021/10/07 03:52:35;;;;;;;12.52;8.02;;;358.90;2329.60;;;;;;5016020;28;20032;-80
2021/10/07 03:55:01;;;;;;;13.05;7.50;;;358.90;2329.60;;;;;;5034664;28;20034;-82
2021/10/07 03:57:29;;;;;;;12.77;7.80;;;358.90;2329.60;;;;;;5016896;28;20026;-81
2021/10/07 03:59:55;;;;;;;11.90;7.03;;;358.80;2329.60;;;;;;5017491;28;20056;-81
2021/10/07 04:02:20;;;;;;;9.98;6.10;;;358.80;2329.60;;;;;;5016662;28;20025;-80
2021/10/07 04:04:46;;;;;;;12.07;5.50;;;358.80;2329.60;;;;;;5015731;28;20601;-81
2021/10/07 04:07:13;;;;;;;11.38;4.88;;;358.80;2329.60;;;;;;5016050;28;20030;-86
2021/10/07 04:09:39;;;;;;;13.25;4.57;;;358.80;2329.60;;;;;;5016408;28;20017;-84
2021/10/07 04:12:05;;;;;;;22.23;5.68;;;358.80;2329.60;;;;;;5016732;28;20013;-83
2021/10/07 04:14:31;;;;;;;10.10;4.43;;;358.70;2329.60;;;;;;5016562;28;20029;-80
2021/10/07 04:16:56;;;;;;;7.22;4.10;;;358.80;2329.60;;;;;;5016036;28;20088;-80
2021/10/07 04:19:22;;;;;;;8.93;4.40;;;358.90;2329.60;;;;;;5015736;28;20037;-85
2021/10/07 04:21:48;;;;;;;9.52;4.07;;;358.90;2329.60;;;;;;5016628;28;20373;-83
2021/10/07 04:24:14;;;;;;;9.65;4.45;;;358.80;2329.60;;;;;;5012946;28;20029;-85
2021/10/07 04:26:40;;;;;;;8.77;4.00;;;358.80;2329.60;;;;;;5024302;28;20025;-80
2021/10/07 04:29:06;;;;;;;8.95;3.92;;;358.80;2329.60;;;;;;5004447;28;20045;-88
2021/10/07 04:31:32;;;;;;;12.85;4.65;;;358.80;2329.60;;;;;;5014544;28;20097;-88
2021/10/07 04:33:57;;;;;;;10.90;4.20;;;358.80;2329.60;;;;;;4996665;28;20046;-82
2021/10/07 04:36:23;;;;;;;8.23;3.85;;;358.80;2329.60;;;;;;4996109;28;20042;-81
2021/10/07 04:38:49;;;;;;;5.93;3.30;;;358.80;2329.60;;;;;;4996536;28;20030;-79
2021/10/07 04:41:16;;;;;;;9.02;3.65;;;358.80;2329.60;;;;;;5014004;28;20040;-81
2021/10/07 04:43:41;;;;;;;11.98;3.65;;;358.80;2329.60;;;;;;4996798;28;20018;-81
2021/10/07 04:46:07;;;;;;;8.13;4.72;;;358.80;2329.60;;;;;;4996431;28;20030;-81
2021/10/07 04:48:33;;;;;;;14.23;3.80;;;358.80;2329.60;;;;;;4996831;28;20018;-82
2021/10/07 04:50:59;;;;;;;9.40;4.07;;;358.80;2329.60;;;;;;4999699;28;20067;-78
2021/10/07 04:53:25;;;;;;;15.10;4.72;;;358.90;2329.60;;;;;;5015859;28;20480;-79
2021/10/07 04:55:54;;;;;;;10.82;4.50;;;358.90;2329.60;;;;;;5015745;28;20087;-74
2021/10/07 04:58:22;;;;;;;11.43;4.20;;;358.90;2329.60;;;;;;5029146;28;20391;-74
2021/10/07 05:00:48;;;;;;;13.23;4.20;;;358.90;2329.60;;;;;;5021969;28;20092;-74
2021/10/07 05:03:13;;;;;;;8.60;3.85;;;359.00;2329.60;;;;;;5023277;28;20049;-74
2021/10/07 05:05:39;;;;;;;13.25;6.78;;;359.00;2329.60;;;;;;5029484;28;20079;-74
2021/10/07 05:08:06;;;;;;;8.57;4.07;;;359.10;2329.60;;;;;;5032548;28;20026;-74
2021/10/07 05:10:32;;;;;;;8.82;4.30;;;359.10;2329.60;;;;;;5032232;28;20021;-74
2021/10/07 05:12:58;;;;;;;11.32;4.22;;;359.10;2329.60;;;;;;5032590;28;20029;-74
2021/10/07 05:15:25;;;;;;;10.30;3.83;;;359.10;2329.60;;;;;;5032438;28;20402;-75
2021/10/07 05:17:51;;;;;;;6.25;3.85;;;359.10;2329.60;;;;;;5032024;28;20032;-74
2021/10/07 05:20:17;;;;;;;11.77;4.35;;;359.00;2329.60;;;;;;5029145;28;20024;-73
2021/10/07 05:22:43;;;;;;;6.93;3.88;;;359.00;2329.60;;;;;;5031619;28;20021;-74
2021/10/07 05:25:10;;;;;;;6.50;3.47;;;359.00;2329.60;;;;;;5032417;28;20026;-75
2021/10/07 05:27:36;;;;;;;13.13;4.53;;;359.10;2329.60;;;;;;5031702;28;20048;-74
2021/10/07 05:30:03;;;;;;;7.72;3.53;;;359.10;2329.60;;;;;;5032359;28;20060;-74
2021/10/07 05:32:29;;;;;;;6.13;4.00;;;359.10;2329.60;;;;;;5032070;28;20034;-76
2021/10/07 05:34:55;;;;;;;8.50;4.22;;;359.10;2329.60;;;;;;5014748;28;20048;-75
2021/10/07 05:37:21;;;;;;;8.55;3.70;;;359.10;2329.60;;;;;;5032406;28;20091;-76
2021/10/07 05:39:47;;;;;;;9.32;4.05;;;359.10;2329.60;;;;;;5032232;28;20045;-75
2021/10/07 05:42:12;;;;;;;12.70;4.18;;;359.10;2329.60;;;;;;5032103;28;20033;-75
2021/10/07 05:44:38;;;;;;;9.50;4.20;;;359.10;2329.60;;;;;;5032181;28;20021;-75
2021/10/07 05:47:04;;;;;;;7.43;3.72;;;359.20;2329.60;;;;;;5032359;28;20033;-75
2021/10/07 05:49:30;;;;;;;7.00;3.75;;;359.20;2329.60;;;;;;5013913;28;20045;-75
2021/10/07 05:51:56;;;;;;;10.15;4.47;;;359.20;2329.60;;;;;;5021146;28;20033;-79
2021/10/07 05:54:23;;;;;;;11.65;4.15;;;359.10;2329.60;;;;;;5011450;28;20045;-77
2021/10/07 05:56:49;;;;;;;13.27;4.35;;;359.10;2329.60;;;;;;5012541;28;20025;-79
2021/10/07 05:59:14;;;;;;;7.25;3.78;;;359.10;2329.60;;;;;;5012417;28;20018;-79
2021/10/07 06:01:41;;;;;;;8.98;4.00;;;359.10;2329.60;;;;;;4994718;28;20033;-76
2021/10/07 06:04:07;;;;;;;9.27;4.00;;;359.20;2329.60;;;;;;5012410;28;20026;-77
2021/10/07 06:06:33;;;;;;;6.45;4.53;;;359.20;2329.60;;;;;;5011976;28;20102;-75
2021/10/07 06:08:59;;;;;;;14.57;4.65;;;359.20;2329.60;;;;;;5020110;28;20037;-76
2021/10/07 06:11:24;;;;;;;10.13;3.83;;;359.30;2329.60;;;;;;5031539;28;20068;-78
2021/10/07 06:13:50;;;;;;;6.18;3.40;;;359.20;2329.60;;;;;;5013890;28;20479;-78
2021/10/07 06:16:19;;;;;;;9.00;4.65;;;359.20;2329.60;;;;;;5031906;28;20034;-77
2021/10/07 06:18:45;;;;;;;9.77;4.13;;;359.20;2329.60;;;;;;5014299;28;20026;-78
2021/10/07 06:21:11;;;;;;;7.03;4.05;;;359.10;2329.60;;;;;;5014106;28;20029;-78
2021/10/07 06:23:41;;;;;;;9.38;4.43;;;359.10;2329.60;;;;;;5014332;28;20104;-79
2021/10/07 06:26:07;;;;;;;13.82;4.25;;;359.10;2329.60;;;;;;5032421;28;20021;-85
2021/10/07 06:28:33;;;;;;;13.05;4.43;;;359.10;2329.60;;;;;;5032672;28;20045;-80
2021/10/07 06:30:59;;;;;;;6.03;3.90;;;359.00;2329.60;;;;;;5032961;28;20048;-77
2021/10/07 06:33:25;;;;;;;10.35;5.22;;;359.00;2329.60;;;;;;5036232;28;20099;-76
2021/10/07 06:35:52;;;;;;;11.20;4.53;;;359.00;2329.60;;;;;;5018694;28;20589;-82
2021/10/07 06:38:18;;;;;;;11.30;4.80;;;359.00;2329.60;;;;;;5018187;28;20021;-83
2021/10/07 06:40:44;;;;;;;11.45;5.05;;;359.00;2329.60;;;;;;5018114;28;20041;-79
2021/10/07 06:43:10;;;;;;;15.05;5.05;;;359.00;2329.60;;;;;;5017842;28;20096;-81
2021/10/07 06:45:36;;;;;;;12.43;5.60;;;359.00;2329.60;;;;;;5036005;28;20053;-82
2021/10/07 06:48:03;;;;;;;12.70;5.80;;;359.00;2329.60;;;;;;5017899;28;20064;-80
2021/10/07 06:50:29;;;;;;;18.85;6.78;;;359.00;2329.60;;;;;;5035925;28;20036;-79
2021/10/07 06:52:56;;;;;;;11.57;5.68;;;359.00;2329.60;;;;;;5017784;28;20025;-80
2021/10/07 06:55:22;;;;;;;16.27;6.00;;;359.00;2329.60;;;;;;5017960;28;20060;-82
2021/10/07 06:57:47;;;;;;;11.15;5.93;;;359.00;2329.60;;;;;;5017488;28;20053;-77
2021/10/07 07:00:13;;;;;;;16.65;6.93;;;359.00;2329.60;;;;;;5017785;28;20121;-76
2021/10/07 07:02:40;;;;;;;13.63;5.90;;;359.10;2329.60;;;;;;5035680;28;20075;-77
2021/10/07 07:05:08;;;;;;;9.32;5.55;;;359.00;2329.60;;;;;;5017567;28;20022;-76
2021/10/07 07:07:34;;;;;;;12.68;5.28;;;359.10;2329.60;;;;;;5017333;28;20109;-78
2021/10/07 07:10:00;;;;;;;10.43;5.13;;;359.10;2329.60;;;;;;5017426;28;20079;-77
2021/10/07 07:12:26;;;;;;;9.23;4.85;;;359.10;2329.60;;;;;;5016813;28;20021;-76
2021/10/07 07:14:52;;;;;;;10.93;4.70;;;359.10;2329.60;;;;;;5016234;28;20075;-76
2021/10/07 07:17:18;;;;;;;15.93;5.10;;;359.20;2329.60;;;;;;5013896;28;20032;-76
2021/10/07 07:19:44;;;;;;;8.00;4.15;;;359.30;2329.60;;;;;;5029924;28;20033;-79
2021/10/07 07:22:11;;;;;;;11.95;5.18;;;359.20;2329.60;;;;;;5016505;28;20037;-78
2021/10/07 07:24:37;;;;;;;20.38;5.07;;;359.30;2329.60;;;;;;5035223;28;20502;-80
2021/10/07 07:27:03;;;;;;;11.30;5.10;;;359.30;2329.60;;;;;;5034450;28;20046;-84
2021/10/07 07:29:28;;;;;;;12.55;4.57;;;359.30;2329.60;;;;;;5035163;28;20029;-75
2021/10/07 07:31:54;;;;;;;13.13;4.50;;;359.30;2329.60;;;;;;5034837;28;20422;-82
2021/10/07 07:34:20;;;;;;;11.50;4.75;;;359.30;2329.60;;;;;;5016191;28;20038;-74
2021/10/07 07:36:46;;;;;;;9.00;5.00;;;359.30;2329.60;;;;;;5033838;28;20379;-73
2021/10/07 07:39:11;;;;;;;7.35;4.07;;;384.00;2329.60;;;;;;5033886;28;20036;-73
2021/10/07 07:41:38;;;;;;;8.80;4.65;;;384.10;2329.60;;;;;;5034698;28;20029;-78
2021/10/07 07:44:06;;;;;;;8.35;5.05;;;384.10;2329.60;;;;;;5016504;28;20033;-77
2021/10/07 07:46:33;;;;;;;11.70;4.32;;;384.10;2329.60;;;;;;5016861;28;20037;-81
2021/10/07 07:49:00;;;;;;;15.80;4.07;;;384.10;2329.60;;;;;;5034415;28;20108;-77
2021/10/07 07:51:27;;;;;;;10.65;4.93;;;384.20;2329.60;;;;;;5016852;28;20080;-80
2021/10/07 07:53:53;;;;;;;11.70;4.72;;;384.20;2329.60;;;;;;5016686;28;20036;-77
2021/10/07 07:56:19;;;;;;;17.90;4.53;;;384.30;2329.60;;;;;;5034684;28;20038;-79
2021/10/07 07:58:45;;;;;;;8.05;4.20;;;384.40;2329.60;;;;;;5016334;28;20060;-76
2021/10/07 08:01:11;;;;;;;10.32;4.13;;;384.40;2329.60;;;;;;5034628;28;20026;-77
2021/10/07 08:03:37;;;;;;;11.43;3.83;;;384.40;2329.60;;;;;;5034024;28;20034;-76
2021/10/07 08:06:04;;;;;;;8.15;4.35;;;384.40;2329.60;;;;;;5034549;28;20449;-75
2021/10/07 08:08:30;;;;;;;9.80;4.20;;;384.60;2329.60;;;;;;5033910;28;20078;-78
2021/10/07 08:10:56;;;;;;;12.00;4.07;;;384.60;2329.60;;;;;;5034160;28;20033;-83
2021/10/07 08:13:22;;;;;;;12.82;4.28;;;384.60;2329.60;;;;;;5034257;28;20051;-79
2021/10/07 08:15:50;;;;;;;10.10;4.28;;;384.70;2329.60;;;;;;5033893;28;20056;-76
2021/10/07 08:18:16;;;;;;;16.23;4.80;;;384.70;2329.60;;;;;;5034375;28;20025;-78
2021/10/07 08:20:42;;;;;;;6.85;3.83;;;384.70;2329.60;;;;;;5033658;28;20034;-75
2021/10/07 08:23:12;;;;;;;17.60;4.95;;;384.80;2329.60;;;;;;5033874;28;20112;-73
2021/10/07 08:25:39;;;;;;;16.38;4.47;;;384.90;2329.60;;;;;;5033767;28;20471;-76
2021/10/07 08:28:05;;;;;;;10.85;3.80;;;384.90;2329.60;;;;;;5015791;28;20087;-75
2021/10/07 08:30:31;;;;;;;20.08;4.78;;;384.90;2329.60;;;;;;5015845;28;20100;-82
2021/10/07 08:32:57;;;;;;;13.80;4.22;;;409.60;2355.20;;;;;;5033733;28;20049;-79
2021/10/07 08:35:23;;;;;;;12.10;4.82;;;409.60;2355.20;;;;;;5015991;28;20065;-77
2021/10/07 08:37:49;;;;;;;8.23;4.60;;;409.70;2355.20;;;;;;5033640;28;20124;-80
2021/10/07 08:40:15;;;;;;;19.00;4.88;;;409.70;2355.20;;;;;;5016062;28;20193;-75
2021/10/07 08:42:42;;;;;;;16.63;5.40;;;409.70;2355.20;;;;;;5033372;28;20040;-75
2021/10/07 08:45:11;;;;;;;15.02;4.95;;;409.80;2355.20;;;;;;5033698;28;20053;-75
2021/10/07 08:47:42;;;;;;;17.10;4.43;;;409.80;2355.20;;;;;;5033371;28;20026;-76
2021/10/07 08:50:11;;;;;;;19.70;4.30;;;409.80;2355.20;;;;;;5033562;28;20471;-77
2021/10/07 08:52:37;;;;;;;14.50;5.03;;;409.70;2355.20;;;;;;5033194;28;20022;-79
2021/10/07 08:55:04;;;;;;;7.53;3.88;;;409.70;2355.20;;;;;;5014570;28;20116;-76
2021/10/07 08:57:30;;;;;;;11.43;4.15;;;409.70;2355.20;;;;;;5033259;28;20037;-81
2021/10/07 08:59:56;;;;;;;16.52;5.25;;;409.80;2355.20;;;;;;5015766;28;20499;-77
2021/10/07 09:02:30;;;;;;;15.70;5.00;;;409.80;2355.20;;;;;;5033571;28;20022;-75
2021/10/07 09:05:17;;;;;;;16.50;5.63;;;409.80;2355.20;;;;;;5031993;28;20036;-79
2021/10/07 09:07:52;;;;;;;;;;;409.90;2355.20;;;;;;5033138;28;20033;-77
2021/10/07 09:10:18;;;;;;;9.75;4.63;;;409.90;2355.20;;;;;;5032560;28;19946;-76
2021/10/07 09:13:04;;;;;;;14.70;4.68;;;409.80;2355.20;;;;;;5022467;28;20440;-77
2021/10/07 09:15:30;;;;;;;6.32;4.32;;;409.80;2355.20;;;;;;5022738;28;20064;-77
2021/10/07 09:18:02;;;;;;;12.65;4.65;;;409.90;2355.20;;;;;;5021417;28;20025;-77
2021/10/07 09:20:37;;;;;;;16.17;4.63;;;409.90;2355.20;;;;;;5009265;28;20029;-79
2021/10/07 09:23:11;;;;;;;21.73;4.93;;;409.90;2355.20;;;;;;5032625;28;20022;-76
2021/10/07 09:26:00;;;;;;;17.92;4.70;;;410.00;2355.20;;;;;;5032597;28;20061;-78
2021/10/07 09:28:30;;;;;;;25.55;7.18;;;410.10;2355.20;;;;;;5032057;28;20084;-78
2021/10/07 09:30:58;;;;;;;14.32;5.03;;;410.10;2355.20;;;;;;5015140;28;20025;-77
2021/10/07 09:33:30;;;;;;;19.00;4.25;;;410.20;2355.20;;;;;;5032487;28;20031;-76
2021/10/07 09:36:17;;;;;;;27.92;8.25;;;410.30;2355.20;;;;;;5014862;28;20060;-77
2021/10/07 09:38:46;;;;;;;10.40;4.18;;;410.30;2355.20;;;;;;5015131;28;20033;-78
2021/10/07 09:41:19;;;;;;;17.92;5.80;;;410.40;2355.20;;;;;;5015812;28;20040;-79
2021/10/07 09:43:49;;;;;;;15.70;4.93;;;410.50;2355.20;;;;;;5032379;28;20021;-77
2021/10/07 09:46:37;;;;;;;18.55;4.85;;;410.50;2355.20;;;;;;5032535;28;20040;-77
2021/10/07 09:49:03;;;;;;;8.95;4.13;;;410.50;2355.20;;;;;;5032263;28;20054;-77
2021/10/07 09:51:37;;;;;;;17.50;4.47;;;435.20;2355.20;;;;;;5007322;28;20073;-78
2021/10/07 09:54:06;;;;;;;10.07;4.20;;;435.30;2355.20;;;;;;5011441;28;20042;-79
2021/10/07 09:56:32;;;;;;;19.25;4.43;;;435.40;2355.20;;;;;;5012372;28;20369;-79
2021/10/07 09:59:07;;;;;;;21.65;4.63;;;435.50;2355.20;;;;;;5000603;28;20029;-78
2021/10/07 10:01:33;;;;;;;12.48;5.00;;;435.60;2329.60;;;;;;5029326;28;20033;-79
2021/10/07 10:04:00;;;;;;;16.65;5.00;;;435.60;2355.20;;;;;;5010604;28;20032;-79
2021/10/07 10:06:26;;;;;;;11.27;4.43;;;435.80;2329.60;;;;;;5012775;28;20032;-79
2021/10/07 10:08:52;;;;;;;17.15;5.22;;;435.80;2329.60;;;;;;5031912;28;20021;-80
2021/10/07 10:11:20;;;;;;;10.25;4.85;;;435.80;2278.40;;;;;;5031743;28;20017;-79
2021/10/07 10:13:49;;;;;;;23.50;4.68;;;435.90;2278.40;;;;;;5014477;28;20032;-79
2021/10/07 10:16:16;;;;;;;16.67;4.15;;;436.00;2304.00;;;;;;5014490;28;20036;-79
2021/10/07 10:18:46;;;;;;;19.95;5.43;;;436.10;2278.40;;;;;;5032017;28;20053;-81
2021/10/07 10:21:14;;;;;;;12.60;3.47;;;436.10;2304.00;;;;;;5013996;28;20383;-80
2021/10/07 10:23:40;;;;;;;15.88;6.38;;;436.10;2252.80;;;;;;5031266;28;20096;-79
2021/10/07 10:26:13;;;;;;;24.20;5.68;;;435.90;2252.80;;;;;;5010715;28;20029;-77
2021/10/07 10:28:41;;;;;;;22.35;4.20;;;435.90;2252.80;;;;;;5030864;28;20053;-77
2021/10/07 10:31:09;;;;;;;19.55;5.25;;;435.90;2278.40;;;;;;5021686;28;20107;-79
2021/10/07 10:33:43;;;;;;;13.75;4.78;;;435.90;2252.80;;;;;;5013636;28;20034;-78
2021/10/07 10:36:24;;;;;;;18.20;4.07;;;435.90;2278.40;;;;;;5032231;28;20508;-78
2021/10/07 10:39:15;;;;;;;15.80;4.47;;;435.80;2252.80;;;;;;5031984;28;20495;-78
2021/10/07 10:42:00;;;;;;;19.90;5.43;;;435.90;2252.80;;;;;;5007509;28;20038;-79
2021/10/07 10:44:26;;;;;;;18.23;5.05;;;435.90;2252.80;;;;;;5013959;28;20026;-79
2021/10/07 10:47:07;;;;;;;17.75;4.40;;;435.90;2252.80;;;;;;5013962;28;20036;-77
2021/10/07 10:49:54;;;;;;;18.05;5.65;;;436.00;2252.80;;;;;;5031318;28;20406;-78
2021/10/07 10:52:31;;;;;;;12.02;4.40;;;435.90;2252.80;;;;;;5030663;28;20051;-78
2021/10/07 10:55:17;;;;;;;18.70;5.90;;;435.90;2201.60;;;;;;5011350;28;20494;-76
2021/10/07 10:57:49;;;;;;;;;;;435.80;2227.20;;;;;;5012801;28;20079;-77
2021/10/07 11:00:30;;;;;;;18.33;4.70;;;435.90;2227.20;;;;;;5011765;28;19913;-78
2021/10/07 11:03:08;;;;;;;16.38;4.72;;;435.90;2201.60;;;;;;5013966;28;20032;-79
2021/10/07 11:05:40;;;;;;;18.20;3.80;;;435.90;2227.20;;;;;;5014052;28;20026;-79
2021/10/07 11:08:09;;;;;;;19.85;4.85;;;435.90;2201.60;;;;;;5014299;28;20025;-79
2021/10/07 11:11:04;;;;;;;22.05;3.83;;;435.80;2201.60;;;;;;5013535;28;20430;-79
2021/10/07 11:13:33;;;;;;;14.38;3.90;;;435.80;2227.20;;;;;;5011699;28;20030;-79
2021/10/07 11:16:01;;;;;;;20.20;5.97;;;435.80;2227.20;;;;;;5013971;28;20040;-79
2021/10/07 11:18:33;;;;;;;9.80;4.45;;;435.70;2227.20;;;;;;5032231;28;20026;-79
2021/10/07 11:21:01;;;;;;;14.40;4.28;;;435.60;2227.20;;;;;;5034275;28;20017;-79
2021/10/07 11:23:31;;;;;;;14.43;3.90;;;435.60;2201.60;;;;;;5008009;28;20124;-79
2021/10/07 11:25:59;;;;;;;14.75;4.80;;;435.60;2227.20;;;;;;5027642;28;20025;-79
2021/10/07 11:28:35;;;;;;;15.82;5.00;;;435.60;2201.60;;;;;;5016533;28;20049;-79
2021/10/07 11:31:11;;;;;;;14.02;4.40;;;435.60;2201.60;;;;;;5016964;28;20045;-77
2021/10/07 11:33:42;;;;;;;17.25;4.78;;;435.60;2201.60;;;;;;5016771;28;20029;-78
2021/10/07 11:36:10;;;;;;;12.98;4.38;;;435.60;2201.60;;;;;;5015781;28;20045;-77
2021/10/07 11:38:41;;;;;;;13.77;3.47;;;435.50;2201.60;;;;;;5016616;28;20079;-78
2021/10/07 11:41:08;;;;;;;17.90;3.78;;;435.40;2176.00;;;;;;5034295;28;20164;-79
2021/10/07 11:43:37;;;;;;;16.52;4.13;;;435.40;2176.00;;;;;;5012945;28;20041;-79
2021/10/07 11:46:14;;;;;;;21.92;4.53;;;435.40;2201.60;;;;;;5016156;28;20025;-78
2021/10/07 12:05:17;;;;;;;23.08;4.53;;;435.40;2150.40;;;;;;5085621;23;20564;-80
2021/10/07 12:08:00;;;;;;;8.30;3.17;;;435.40;2150.40;;;;;;5012898;28;20533;-80
2021/10/07 12:10:54;;;;;;;15.63;3.17;;;435.40;2150.40;;;;;;5022330;28;20119;-77
2021/10/07 12:13:31;;;;;;;13.45;3.47;;;435.40;2150.40;;;;;;5030090;28;20513;-77
2021/10/07 12:16:01;;;;;;;10.35;3.38;;;435.40;2124.80;;;;;;5031757;28;20052;-76
2021/10/07 12:18:28;;;;;;;8.43;3.15;;;435.50;2124.80;;;;;;5028948;28;20014;-77
2021/10/07 12:20:59;;;;;;;15.82;3.03;;;435.50;2124.80;;;;;;4996533;28;20026;-77
2021/10/07 12:23:25;;;;;;;23.50;3.90;;;435.50;2099.20;;;;;;5013854;28;20048;-77
2021/10/07 12:25:57;;;;;;;8.70;2.70;;;435.50;2099.20;;;;;;4996633;28;20131;-76
2021/10/07 12:28:23;;;;;;;26.55;3.58;;;435.50;2099.20;;;;;;5013920;28;20073;-77
2021/10/07 12:30:55;;;;;;;14.73;3.40;;;435.50;2099.20;;;;;;5013362;28;20026;-76
2021/10/07 12:33:21;;;;;;;8.43;3.38;;;435.50;2099.20;;;;;;5028832;28;20125;-76
2021/10/07 12:35:54;;;;;;;7.78;3.05;;;435.50;2099.20;;;;;;5015304;28;20105;-78
2021/10/07 12:38:20;;;;;;;11.68;3.47;;;435.50;2099.20;;;;;;5033989;28;20410;-79
2021/10/07 12:40:54;;;;;;;14.00;3.40;;;435.30;2099.20;;;;;;5031302;28;20034;-79